KLM96L EGPH-EHAM
Flight info
| Callsign | KLM96L |
|---|---|
| Flight time | N/A |
| Altitude | 35000 |
| Route | TLA Y96 NATEB DCT ROKAN M982 TOPPA |
| Aircraft | A320/M-SDE3FGHIRWY/LB1 |
Departure
| Time | 2026-04-20 18:54 |
|---|---|
| Airport | Edinburgh Airport (EGPH) |
Arrival
| Time | N/A |
|---|---|
| Airport | Amsterdam Airport Schiphol (EHAM) |
| Time | Latitude | Longitude | Altitude | Speed | Heading |
|---|---|---|---|---|---|
| 2026-04-20 18:13 | 55.94702 | -3.36602 | 115 ft | 0 kts | 89° |
| 2026-04-20 18:43 | 55.94702 | -3.36608 | 116 ft | 2 kts | 89° |
| 2026-04-20 18:43 | 55.94702 | -3.36641 | 112 ft | 3 kts | 89° |
| 2026-04-20 18:44 | 55.94702 | -3.36675 | 112 ft | 3 kts | 88° |
| 2026-04-20 18:44 | 55.94699 | -3.36709 | 112 ft | 3 kts | 57° |
| 2026-04-20 18:44 | 55.94686 | -3.36730 | 114 ft | 3 kts | 17° |
| 2026-04-20 18:44 | 55.94672 | -3.36735 | 112 ft | 1 kts | 359° |
| 2026-04-20 18:45 | 55.94670 | -3.36735 | 112 ft | 0 kts | 359° |
| 2026-04-20 18:47 | 55.94671 | -3.36735 | 112 ft | 1 kts | 359° |
| 2026-04-20 18:47 | 55.94693 | -3.36736 | 113 ft | 7 kts | 359° |
| 2026-04-20 18:48 | 55.94760 | -3.36758 | 113 ft | 12 kts | 331° |
| 2026-04-20 18:48 | 55.94849 | -3.36778 | 116 ft | 14 kts | 0° |
| 2026-04-20 18:48 | 55.94924 | -3.36844 | 116 ft | 11 kts | 303° |
| 2026-04-20 18:48 | 55.94904 | -3.36960 | 115 ft | 10 kts | 238° |
| 2026-04-20 18:49 | 55.94871 | -3.37060 | 113 ft | 10 kts | 239° |
| 2026-04-20 18:49 | 55.94828 | -3.37185 | 113 ft | 14 kts | 239° |
| 2026-04-20 18:49 | 55.94774 | -3.37345 | 115 ft | 17 kts | 239° |
| 2026-04-20 18:49 | 55.94705 | -3.37548 | 113 ft | 21 kts | 239° |
| 2026-04-20 18:50 | 55.94620 | -3.37797 | 114 ft | 26 kts | 238° |
| 2026-04-20 18:50 | 55.94523 | -3.38083 | 115 ft | 28 kts | 239° |
| 2026-04-20 18:50 | 55.94418 | -3.38394 | 114 ft | 30 kts | 239° |
| 2026-04-20 18:50 | 55.94349 | -3.38597 | 115 ft | 9 kts | 239° |
| 2026-04-20 18:51 | 55.94321 | -3.38680 | 114 ft | 7 kts | 239° |
| 2026-04-20 18:51 | 55.94293 | -3.38762 | 114 ft | 8 kts | 238° |
| 2026-04-20 18:51 | 55.94280 | -3.38850 | 116 ft | 7 kts | 291° |
| 2026-04-20 18:51 | 55.94314 | -3.38897 | 114 ft | 6 kts | 328° |
| 2026-04-20 18:52 | 55.94360 | -3.38948 | 113 ft | 10 kts | 328° |
| 2026-04-20 18:52 | 55.94425 | -3.38944 | 113 ft | 11 kts | 59° |
| 2026-04-20 18:52 | 55.94429 | -3.38934 | 114 ft | 0 kts | 59° |
| 2026-04-20 18:53 | 55.94429 | -3.38933 | 114 ft | 2 kts | 59° |
| 2026-04-20 18:53 | 55.94538 | -3.38605 | 113 ft | 69 kts | 58° |
| 2026-04-20 18:53 | 55.94900 | -3.37542 | 113 ft | 130 kts | 59° |
| 2026-04-20 18:53 | 55.95438 | -3.35955 | 393 ft | 155 kts | 58° |
| 2026-04-20 18:54 | 55.96023 | -3.34345 | 1168 ft | 156 kts | 53° |
| 2026-04-20 18:54 | 55.96838 | -3.32962 | 1797 ft | 171 kts | 45° |
| 2026-04-20 18:54 | 55.97761 | -3.31474 | 2261 ft | 186 kts | 45° |
| 2026-04-20 18:54 | 55.98775 | -3.29805 | 2622 ft | 211 kts | 45° |
| 2026-04-20 18:55 | 55.99909 | -3.27925 | 3118 ft | 233 kts | 45° |
| 2026-04-20 18:55 | 56.01130 | -3.25868 | 3737 ft | 250 kts | 43° |
| 2026-04-20 18:55 | 56.02458 | -3.23757 | 4555 ft | 256 kts | 43° |
| 2026-04-20 18:55 | 56.03792 | -3.21669 | 5601 ft | 257 kts | 42° |
| 2026-04-20 18:56 | 56.04999 | -3.19320 | 6191 ft | 260 kts | 63° |
| 2026-04-20 18:56 | 56.05382 | -3.16212 | 6764 ft | 260 kts | 91° |
| 2026-04-20 18:56 | 56.05174 | -3.12981 | 7614 ft | 262 kts | 100° |
| 2026-04-20 18:56 | 56.04652 | -3.09858 | 8459 ft | 267 kts | 118° |
| 2026-04-20 18:57 | 56.03456 | -3.07285 | 9248 ft | 273 kts | 138° |
| 2026-04-20 18:57 | 56.01893 | -3.05349 | 10191 ft | 273 kts | 145° |
| 2026-04-20 18:57 | 56.00331 | -3.03460 | 10892 ft | 281 kts | 142° |
| 2026-04-20 18:57 | 55.98692 | -3.01295 | 11094 ft | 304 kts | 141° |
| 2026-04-20 18:58 | 55.96758 | -2.99491 | 11372 ft | 327 kts | 163° |
| 2026-04-20 18:58 | 55.94427 | -2.99389 | 11821 ft | 344 kts | 185° |
| 2026-04-20 18:58 | 55.92182 | -3.00659 | 13033 ft | 335 kts | 200° |
| 2026-04-20 18:58 | 55.90030 | -3.02514 | 13386 ft | 353 kts | 203° |
| 2026-04-20 18:59 | 55.87829 | -3.04568 | 13983 ft | 359 kts | 203° |
| 2026-04-20 18:59 | 55.85606 | -3.06643 | 14659 ft | 361 kts | 205° |
| 2026-04-20 18:59 | 55.83362 | -3.08677 | 15326 ft | 363 kts | 204° |
| 2026-04-20 18:59 | 55.81079 | -3.10644 | 15967 ft | 366 kts | 202° |
| 2026-04-20 19:00 | 55.78744 | -3.12448 | 16587 ft | 367 kts | 194° |
| 2026-04-20 19:00 | 55.76239 | -3.13142 | 17190 ft | 365 kts | 176° |
| 2026-04-20 19:00 | 55.73755 | -3.12394 | 17807 ft | 363 kts | 158° |
| 2026-04-20 19:00 | 55.71537 | -3.10279 | 18391 ft | 364 kts | 140° |
| 2026-04-20 19:01 | 55.69613 | -3.07342 | 18956 ft | 366 kts | 137° |
| 2026-04-20 19:01 | 55.67694 | -3.04334 | 19484 ft | 370 kts | 137° |
| 2026-04-20 19:01 | 55.65764 | -3.01299 | 20019 ft | 373 kts | 137° |
| 2026-04-20 19:01 | 55.63815 | -2.98245 | 20565 ft | 375 kts | 137° |
| 2026-04-20 19:02 | 55.61848 | -2.95177 | 21111 ft | 378 kts | 137° |
| 2026-04-20 19:02 | 55.59864 | -2.92093 | 21634 ft | 382 kts | 138° |
| 2026-04-20 19:02 | 55.57860 | -2.88988 | 22154 ft | 385 kts | 138° |
| 2026-04-20 19:02 | 55.55839 | -2.85866 | 22656 ft | 388 kts | 138° |
| 2026-04-20 19:03 | 55.53800 | -2.82716 | 23150 ft | 391 kts | 138° |
| 2026-04-20 19:03 | 55.51750 | -2.79551 | 23652 ft | 393 kts | 138° |
| 2026-04-20 19:03 | 55.49685 | -2.76371 | 24115 ft | 394 kts | 138° |
| 2026-04-20 19:03 | 55.47610 | -2.73178 | 24498 ft | 398 kts | 138° |
| 2026-04-20 19:04 | 55.45515 | -2.69960 | 24835 ft | 401 kts | 138° |
| 2026-04-20 19:04 | 55.43404 | -2.66721 | 25170 ft | 404 kts | 138° |
| 2026-04-20 19:04 | 55.41273 | -2.63455 | 25525 ft | 407 kts | 138° |
| 2026-04-20 19:04 | 55.39135 | -2.60183 | 25892 ft | 409 kts | 138° |
| 2026-04-20 19:05 | 55.36977 | -2.56891 | 26227 ft | 411 kts | 138° |
| 2026-04-20 19:05 | 55.34806 | -2.53589 | 26551 ft | 414 kts | 138° |
| 2026-04-20 19:05 | 55.32624 | -2.50274 | 26879 ft | 417 kts | 138° |
| 2026-04-20 19:05 | 55.30420 | -2.46924 | 27182 ft | 419 kts | 137° |
| 2026-04-20 19:06 | 55.28398 | -2.43324 | 27486 ft | 422 kts | 129° |
| 2026-04-20 19:06 | 55.26694 | -2.39130 | 27771 ft | 424 kts | 120° |
| 2026-04-20 19:06 | 55.25235 | -2.34617 | 28067 ft | 427 kts | 119° |
| 2026-04-20 19:06 | 55.23764 | -2.30080 | 28330 ft | 430 kts | 119° |
| 2026-04-20 19:07 | 55.22263 | -2.25490 | 28474 ft | 437 kts | 119° |
| 2026-04-20 19:07 | 55.20738 | -2.20851 | 28683 ft | 441 kts | 120° |
| 2026-04-20 19:07 | 55.19205 | -2.16198 | 29040 ft | 441 kts | 119° |
| 2026-04-20 19:07 | 55.17673 | -2.11548 | 29414 ft | 441 kts | 119° |
| 2026-04-20 19:08 | 55.16145 | -2.06895 | 29690 ft | 443 kts | 119° |
| 2026-04-20 19:08 | 55.13050 | -1.97518 | 30207 ft | 447 kts | 119° |
| 2026-04-20 19:08 | 55.11490 | -1.92808 | 30421 ft | 449 kts | 120° |
| 2026-04-20 19:09 | 55.09918 | -1.88070 | 30629 ft | 451 kts | 120° |
| 2026-04-20 19:09 | 55.08344 | -1.83333 | 30874 ft | 451 kts | 120° |
| 2026-04-20 19:09 | 55.06764 | -1.78598 | 31126 ft | 452 kts | 120° |
| 2026-04-20 19:09 | 55.05183 | -1.73863 | 31369 ft | 452 kts | 119° |
| 2026-04-20 19:10 | 55.03655 | -1.69068 | 31603 ft | 452 kts | 115° |
| 2026-04-20 19:10 | 55.02376 | -1.64054 | 31829 ft | 453 kts | 113° |
| 2026-04-20 19:10 | 55.01109 | -1.59035 | 32133 ft | 451 kts | 113° |
| 2026-04-20 19:10 | 54.99846 | -1.54050 | 32446 ft | 450 kts | 113° |
| 2026-04-20 19:11 | 54.98577 | -1.49054 | 32620 ft | 452 kts | 113° |
| 2026-04-20 19:11 | 54.97314 | -1.44092 | 32782 ft | 455 kts | 113° |